Time,TemperatureF,DewpointF,PressureIn,WindDirection,WindDirectionDegrees,WindSpeedMPH,WindSpeedGustMPH,Humidity,HourlyPrecipIn,Conditions,Clouds,dailyrainin,SoftwareType,DateUTC
2013-12-24 00:00:00,36.5,26.6,27.67,North,353,0.0,0.0,67,0.00,,,0.00,VWS V13.01,2013-12-24 08:00:00,
2013-12-24 00:05:00,36.3,26.8,27.67,North,357,0.0,0.0,68,0.00,,,0.00,VWS V13.01,2013-12-24 08:05:00,
2013-12-24 00:10:00,36.3,26.8,27.67,ENE,69,0.0,0.0,68,0.00,,,0.00,VWS V13.01,2013-12-24 08:10:00,
2013-12-24 00:15:00,36.3,26.4,27.67,North,0,0.0,0.0,67,0.00,,,0.00,VWS V13.01,2013-12-24 08:15:00,
2013-12-24 09:25:00,29.8,26.7,27.70,SSE,163,0.0,0.0,88,0.00,,,0.00,VWS V13.01,2013-12-24 17:25:00,
2013-12-24 09:31:00,30.0,26.9,27.70,South,175,3.6,3.6,88,0.00,,,0.00,VWS V13.01,2013-12-24 17:31:00,
2013-12-24 09:36:00,30.2,27.4,27.70,SSE,162,2.7,3.1,89,0.00,,,0.00,VWS V13.01,2013-12-24 17:36:00,
2013-12-24 09:41:00,30.6,27.7,27.70,SE,141,2.7,3.1,89,0.00,,,0.00,VWS V13.01,2013-12-24 17:41:00,
2013-12-24 09:46:00,30.9,28.1,27.70,South,180,0.0,4.0,89,0.00,,,0.00,VWS V13.01,2013-12-24 17:46:00,
2013-12-24 09:51:00,31.3,28.4,27.70,SSE,167,4.0,4.0,89,0.00,,,0.00,VWS V13.01,2013-12-24 17:51:00,
2013-12-24 11:49:00,31.3,28.4,27.70,WSW,240,3.6,3.6,89,0.00,,,0.00,VWS V13.01,2013-12-24 19:49:00,
2013-12-24 11:55:00,37.9,26.9,27.70,SSE,148,5.8,5.8,64,0.00,,,0.00,VWS V13.01,2013-12-24 19:55:00,
2013-12-24 12:00:00,38.3,26.0,27.70,WSW,237,2.2,3.6,61,0.00,,,0.00,VWS V13.01,2013-12-24 20:00:00,
2013-12-24 12:05:00,38.7,26.4,27.67,SSE,158,4.9,4.9,61,0.00,,,0.00,VWS V13.01,2013-12-24 20:05:00,
2013-12-24 12:10:00,38.8,26.2,27.67,SSW,209,2.7,4.0,60,0.00,,,0.00,VWS V13.01,2013-12-24 20:10:00,
2013-12-24 12:15:00,39.2,26.1,27.67,South,176,3.1,4.0,59,0.00,,,0.00,VWS V13.01,2013-12-24 20:15:00,
2013-12-24 12:19:00,39.4,25.4,27.67,West,260,5.4,5.4,57,0.00,,,0.00,VWS V13.01,2013-12-24 20:19:00,
2013-12-24 12:24:00,39.7,25.8,27.67,South,179,3.1,3.1,57,0.00,,,0.00,VWS V13.01,2013-12-24 20:24:00,
2013-12-24 12:30:00,39.7,25.3,27.67,SSW,192,3.1,4.0,56,0.00,,,0.00,VWS V13.01,2013-12-24 20:30:00,
2013-12-24 12:34:00,39.9,25.5,27.67,WSW,254,2.7,4.0,56,0.00,,,0.00,VWS V13.01,2013-12-24 20:34:00,
2013-12-24 13:09:00,41.0,24.7,27.67,SSW,195,0.0,4.0,52,0.00,,,0.00,VWS V13.01,2013-12-24 21:09:00,
2013-12-24 13:15:00,41.2,25.4,27.67,South,173,3.1,4.9,53,0.00,,,0.00,VWS V13.01,2013-12-24 21:15:00,
2013-12-24 13:20:00,41.4,25.1,27.67,SSE,159,4.0,5.4,52,0.00,,,0.00,VWS V13.01,2013-12-24 21:20:00,
2013-12-24 13:25:00,41.5,24.8,27.67,SSW,192,4.0,4.0,51,0.00,,,0.00,VWS V13.01,2013-12-24 21:25:00,
2013-12-24 13:30:00,41.9,25.1,27.67,South,174,3.1,7.6,51,0.00,,,0.00,VWS V13.01,2013-12-24 21:30:00,